Time;durP1;ratioP1;P1;durP2;ratioP2;P2;SDS_P1;SDS_P2;PMS_P1;PMS_P2;Temp;Humidity;BMP_temperature;BMP_pressure;BME280_temperature;BME280_humidity;BME280_pressure;Samples;Min_cycle;Max_cycle;Signal;HPM_P1;HPM_P2
2022/05/21 00:01:30;;;;;;;0.10;0.10;;;;;;;15.80;65.32;101975.94;5008347;28;20030;-78
2022/05/21 00:03:57;;;;;;;0.10;0.10;;;;;;;15.94;64.88;101982.78;5010636;28;20392;-78
2022/05/21 00:06:23;;;;;;;0.80;0.80;;;;;;;15.86;65.05;101985.59;5004347;28;20117;-79
2022/05/21 00:08:49;;;;;;;0.30;0.30;;;;;;;15.88;65.29;101974.91;5007003;28;20042;-80
2022/05/21 00:11:16;;;;;;;0.20;0.20;;;;;;;15.95;64.99;101977.38;5011074;28;20097;-80
2022/05/21 00:13:42;;;;;;;0.20;0.20;;;;;;;16.01;65.16;101973.66;5011863;28;20089;-80
2022/05/21 00:16:08;;;;;;;0.10;0.10;;;;;;;16.00;65.18;101974.59;5003641;28;20048;-80
2022/05/21 00:18:34;;;;;;;1.38;0.82;;;;;;;16.04;64.97;101978.97;5008811;28;20030;-80
2022/05/21 00:21:01;;;;;;;0.00;0.00;;;;;;;15.98;65.24;101971.09;5011340;28;20044;-80
2022/05/21 00:23:29;;;;;;;0.10;0.10;;;;;;;16.02;64.96;101964.75;5011219;28;20042;-79
2022/05/21 00:26:00;;;;;;;1.75;1.25;;;;;;;16.04;64.91;101972.72;5005798;28;20038;-79
2022/05/21 00:28:27;;;;;;;0.10;0.10;;;;;;;16.03;65.45;101971.84;5000852;28;20100;-80
2022/05/21 00:30:54;;;;;;;0.75;0.75;;;;;;;16.07;65.29;101962.81;4998527;28;20038;-79
2022/05/21 00:33:21;;;;;;;0.10;0.10;;;;;;;16.17;64.92;101972.38;5011813;28;20032;-78
2022/05/21 00:35:48;;;;;;;0.30;0.30;;;;;;;16.09;65.02;101979.72;5006950;28;20025;-79
2022/05/21 00:38:15;;;;;;;0.10;0.10;;;;;;;16.08;64.92;101980.63;5008051;28;20123;-80
2022/05/21 00:40:42;;;;;;;3.97;2.28;;;;;;;16.09;65.17;101987.72;5012230;28;20038;-78
2022/05/21 00:46:24;;;;;;;0.00;0.00;;;;;;;16.14;65.33;101985.81;5102840;27;20881;-78
2022/05/21 00:49:01;;;;;;;0.10;0.10;;;;;;;16.15;65.28;101979.56;5086154;28;20207;-78
2022/05/21 00:51:32;;;;;;;0.30;0.30;;;;;;;16.09;65.39;101987.72;5083522;28;20024;-78
2022/05/21 00:54:01;;;;;;;0.05;0.05;;;;;;;16.21;65.07;101966.94;5089242;28;20044;-77
2022/05/21 00:56:31;;;;;;;0.10;0.10;;;;;;;16.24;65.03;101969.56;5087902;28;20086;-78
2022/05/21 01:01:50;;;;;;;0.82;0.82;;;;;;;16.31;65.10;101971.13;5083843;28;20506;-78
2022/05/21 01:04:16;;;;;;;0.10;0.10;;;;;;;16.26;64.97;101973.94;5086651;28;20063;-78
2022/05/21 01:06:42;;;;;;;0.22;0.22;;;;;;;16.30;65.18;101970.28;5117491;22;20052;-81
2022/05/21 01:09:08;;;;;;;0.10;0.10;;;;;;;16.31;65.25;101976.47;5095885;28;20024;-81
2022/05/21 01:11:36;;;;;;;0.10;0.10;;;;;;;16.30;65.27;101964.91;5084824;28;20047;-82
2022/05/21 01:14:05;;;;;;;0.10;0.10;;;;;;;16.33;64.92;101969.31;5092771;28;20028;-83
2022/05/21 01:16:32;;;;;;;0.10;0.10;;;;;;;16.37;65.11;101973.66;5098200;28;20028;-82
2022/05/21 01:18:58;;;;;;;0.10;0.10;;;;;;;16.33;65.19;101975.53;5118992;28;20074;-82
2022/05/21 01:21:25;;;;;;;0.93;0.93;;;;;;;16.45;64.95;101971.66;5122558;28;20028;-83
2022/05/21 01:23:51;;;;;;;0.10;0.10;;;;;;;16.44;65.15;101977.94;5110862;28;20028;-82
2022/05/21 01:26:20;;;;;;;0.03;0.03;;;;;;;16.37;64.74;101979.00;5102226;28;20032;-82
2022/05/21 01:28:48;;;;;;;0.93;0.75;;;;;;;16.37;64.75;101981.66;5113312;28;20058;-82
2022/05/21 01:31:14;;;;;;;0.05;0.05;;;;;;;16.47;64.55;101972.50;5112835;28;20058;-82
2022/05/21 01:33:44;;;;;;;3.53;2.03;;;;;;;16.42;64.16;101977.06;5117965;28;20072;-82
2022/05/21 01:36:13;;;;;;;0.63;0.63;;;;;;;16.41;64.16;101977.13;5112830;28;20043;-81
2022/05/21 01:38:41;;;;;;;0.00;0.00;;;;;;;16.45;63.76;101985.03;5105364;28;20035;-82
2022/05/21 01:41:09;;;;;;;0.75;0.75;;;;;;;16.56;63.81;101981.19;5110511;28;20486;-82
2022/05/21 01:46:23;;;;;;;6.65;3.90;;;;;;;16.46;63.82;101983.22;5112106;28;20055;-82
2022/05/21 01:48:50;;;;;;;0.10;0.10;;;;;;;16.65;62.91;101980.97;5105545;28;20055;-82
2022/05/21 01:51:16;;;;;;;0.68;0.68;;;;;;;16.44;63.66;101988.63;5107657;28;20043;-82
2022/05/21 01:53:43;;;;;;;0.73;0.73;;;;;;;16.56;63.17;101975.84;5107570;28;20475;-82
2022/05/21 01:56:11;;;;;;;0.08;0.08;;;;;;;16.58;63.12;101982.03;5109103;28;20153;-82
2022/05/21 01:58:38;;;;;;;0.30;0.30;;;;;;;16.52;63.33;101991.09;5097168;28;20032;-82
2022/05/21 02:01:05;;;;;;;0.10;0.10;;;;;;;16.61;63.30;101980.16;5097776;28;20024;-82
2022/05/21 02:03:32;;;;;;;0.10;0.10;;;;;;;16.54;62.84;101986.59;5098516;28;20024;-82
2022/05/21 02:05:58;;;;;;;0.10;0.10;;;;;;;16.52;62.89;101984.88;5096520;28;20475;-83
2022/05/21 02:08:25;;;;;;;0.10;0.10;;;;;;;16.51;62.88;101984.00;5095840;28;20031;-82
2022/05/21 02:10:52;;;;;;;0.10;0.10;;;;;;;16.47;62.88;101988.56;5103351;28;20035;-82
2022/05/21 02:13:24;;;;;;;0.00;0.00;;;;;;;16.22;63.78;101979.41;5098986;28;20463;-82
2022/05/21 02:15:51;;;;;;;0.75;0.75;;;;;;;16.30;63.24;101985.44;5097801;28;20036;-82
2022/05/21 02:18:18;;;;;;;4.38;0.35;;;;;;;16.21;63.38;101985.66;5093383;28;20081;-82
2022/05/21 02:20:46;;;;;;;0.10;0.10;;;;;;;16.30;63.40;101985.44;5095579;28;20039;-82
2022/05/21 02:23:12;;;;;;;0.00;0.00;;;;;;;16.21;63.41;101991.00;5099621;28;20040;-82
2022/05/21 02:25:38;;;;;;;3.55;0.65;;;;;;;16.13;63.44;101984.06;5098735;28;20039;-82
2022/05/21 02:28:05;;;;;;;0.10;0.10;;;;;;;16.14;63.72;101991.16;5100524;28;20110;-82
2022/05/21 02:30:31;;;;;;;0.00;0.00;;;;;;;16.08;63.94;101999.34;5102262;28;20035;-82
2022/05/21 02:32:57;;;;;;;0.73;0.30;;;;;;;16.17;63.67;102000.91;5093557;28;20024;-82
2022/05/21 02:35:23;;;;;;;0.10;0.10;;;;;;;16.07;64.05;101989.56;5089110;28;20025;-82
2022/05/21 02:40:36;;;;;;;0.10;0.10;;;;;;;15.99;64.11;102002.25;5087046;28;20419;-82
2022/05/21 02:43:02;;;;;;;1.75;1.58;;;;;;;16.05;63.74;101990.50;5092627;28;20024;-82
2022/05/21 02:45:29;;;;;;;0.10;0.10;;;;;;;15.84;64.72;102000.81;5091902;28;20103;-81
2022/05/21 02:47:56;;;;;;;0.35;0.30;;;;;;;15.84;64.21;101991.00;5091821;28;20036;-81
2022/05/21 02:50:27;;;;;;;7.88;1.55;;;;;;;15.87;64.29;101994.53;5090803;28;20046;-81
2022/05/21 02:52:54;;;;;;;0.10;0.10;;;;;;;15.82;64.64;101998.16;5091249;28;20031;-80
2022/05/21 02:55:21;;;;;;;0.63;0.52;;;;;;;15.78;64.61;101995.59;5097066;28;20031;-81
2022/05/21 02:57:47;;;;;;;0.20;0.20;;;;;;;15.84;64.09;101995.47;5087945;28;20027;-81
2022/05/21 03:00:17;;;;;;;0.00;0.00;;;;;;;15.90;64.10;101995.34;5085194;28;20036;-81
2022/05/21 03:02:43;;;;;;;0.15;0.15;;;;;;;15.88;64.09;101994.47;5076412;28;20020;-81
2022/05/21 03:05:10;;;;;;;0.00;0.00;;;;;;;15.75;64.51;101998.31;5096757;28;20119;-82
2022/05/21 03:07:38;;;;;;;2.47;1.27;;;;;;;15.75;64.41;102001.00;5097906;28;20028;-82
2022/05/21 03:10:21;;;;;;;0.40;0.40;;;;;;;15.81;64.40;102000.84;5083614;28;20483;-82
2022/05/21 03:12:48;;;;;;;7.18;3.63;;;;;;;15.60;64.64;101996.88;5093757;28;20470;-81
2022/05/21 03:15:15;;;;;;;0.10;0.10;;;;;;;15.71;64.41;101996.63;5086718;28;20032;-81
2022/05/21 03:17:42;;;;;;;0.20;0.20;;;;;;;15.65;64.09;102001.22;5089314;28;20039;-81
2022/05/21 03:20:08;;;;;;;0.10;0.10;;;;;;;15.66;64.40;101999.41;5090607;28;20024;-82
2022/05/21 03:22:34;;;;;;;0.10;0.10;;;;;;;15.54;64.39;102008.59;5093338;28;20035;-82
2022/05/21 03:25:01;;;;;;;0.10;0.10;;;;;;;15.59;64.30;101996.00;5093038;28;20035;-81
2022/05/21 03:27:27;;;;;;;0.15;0.15;;;;;;;15.63;64.19;101994.16;5087047;28;20036;-81
2022/05/21 03:29:53;;;;;;;0.00;0.00;;;;;;;15.52;64.55;102000.59;5092567;28;20032;-81
2022/05/21 03:32:19;;;;;;;0.10;0.10;;;;;;;15.58;64.00;102007.59;5086738;28;20020;-82
2022/05/21 03:34:45;;;;;;;0.60;0.60;;;;;;;15.64;63.80;102003.94;5085543;28;20028;-82
2022/05/21 03:37:11;;;;;;;0.10;0.10;;;;;;;15.58;63.69;102007.59;5092562;28;20056;-82
2022/05/21 03:39:38;;;;;;;0.82;0.82;;;;;;;15.52;63.76;102008.59;5091043;28;20046;-81
2022/05/21 03:42:05;;;;;;;0.10;0.10;;;;;;;15.56;63.56;102004.06;5087703;28;20040;-82
2022/05/21 03:44:31;;;;;;;0.10;0.10;;;;;;;15.45;63.37;102019.47;5091290;28;20084;-82
2022/05/21 03:46:58;;;;;;;0.10;0.10;;;;;;;15.43;62.75;102008.81;5099275;28;20603;-82
2022/05/21 03:49:26;;;;;;;0.73;0.73;;;;;;;15.39;63.04;102004.47;5102123;28;20059;-82
2022/05/21 03:51:52;;;;;;;0.00;0.00;;;;;;;15.51;62.43;102006.88;5095987;28;20106;-82
2022/05/21 03:54:18;;;;;;;0.20;0.20;;;;;;;15.52;62.48;102016.63;5097691;28;20475;-82
2022/05/21 03:56:45;;;;;;;0.32;0.20;;;;;;;15.45;62.41;102020.34;5090575;28;20055;-82
2022/05/21 03:59:12;;;;;;;0.03;0.03;;;;;;;15.57;61.96;102010.31;5087211;28;20039;-82
2022/05/21 04:01:38;;;;;;;0.03;0.03;;;;;;;15.60;62.02;102018.25;5085156;28;20110;-81
2022/05/21 04:04:04;;;;;;;0.10;0.10;;;;;;;15.52;61.87;102013.06;5088796;28;20402;-82
2022/05/21 04:06:30;;;;;;;0.10;0.10;;;;;;;15.39;61.85;102015.16;5098161;28;20085;-81
2022/05/21 04:08:56;;;;;;;0.10;0.10;;;;;;;15.49;61.63;102016.69;5096122;28;20032;-82
2022/05/21 04:11:22;;;;;;;0.10;0.10;;;;;;;15.58;62.03;102009.41;5089689;28;20049;-82
2022/05/21 04:13:49;;;;;;;0.10;0.10;;;;;;;15.55;61.48;102018.34;5098159;28;20503;-82
2022/05/21 04:16:15;;;;;;;0.10;0.10;;;;;;;15.47;61.63;102026.53;5088865;28;20036;-82
2022/05/21 04:18:41;;;;;;;0.00;0.00;;;;;;;15.44;61.68;102029.28;5109253;28;20032;-82
2022/05/21 04:21:07;;;;;;;0.10;0.10;;;;;;;15.42;61.73;102033.75;5110186;28;20033;-81
2022/05/21 04:23:33;;;;;;;0.10;0.10;;;;;;;15.34;61.37;102035.72;5099452;28;20032;-82
2022/05/21 04:26:00;;;;;;;0.40;0.40;;;;;;;15.48;61.24;102036.31;5093152;28;20030;-82
2022/05/21 04:28:26;;;;;;;0.10;0.10;;;;;;;15.37;61.53;102041.88;5093865;28;20487;-81
2022/05/21 04:30:52;;;;;;;0.10;0.10;;;;;;;15.44;61.64;102041.72;5089114;28;20644;-82
2022/05/21 04:33:18;;;;;;;7.28;0.93;;;;;;;15.38;61.33;102042.75;5097380;28;20036;-82
2022/05/21 04:38:33;;;;;;;0.10;0.10;;;;;;;15.50;61.34;102042.50;5088021;28;20089;-81
2022/05/21 04:40:59;;;;;;;0.10;0.10;;;;;;;15.40;61.52;102054.28;5091711;28;20039;-82
2022/05/21 04:43:25;;;;;;;0.00;0.00;;;;;;;15.39;61.18;102059.66;5091636;28;20056;-81
2022/05/21 04:45:53;;;;;;;0.10;0.10;;;;;;;15.44;60.85;102053.31;5084806;28;20029;-81
2022/05/21 04:48:19;;;;;;;0.65;0.65;;;;;;;15.41;61.22;102049.81;5101315;28;20045;-81
2022/05/21 04:50:45;;;;;;;0.00;0.00;;;;;;;15.35;60.84;102051.72;5092273;28;20028;-81
2022/05/21 04:53:11;;;;;;;0.05;0.05;;;;;;;15.41;61.16;102058.69;5091039;28;20062;-82
2022/05/21 04:55:37;;;;;;;0.10;0.10;;;;;;;15.52;60.96;102048.66;5091852;28;20024;-82
2022/05/21 04:58:05;;;;;;;0.10;0.10;;;;;;;15.53;60.74;102062.94;5090764;28;20028;-82
2022/05/21 05:00:32;;;;;;;0.10;0.10;;;;;;;15.53;60.90;102052.25;5095230;28;20036;-82
2022/05/21 05:02:58;;;;;;;0.35;0.35;;;;;;;15.59;61.12;102057.44;5084994;28;20020;-82
2022/05/21 05:05:24;;;;;;;1.48;1.38;;;;;;;15.62;60.98;102068.06;5091128;28;20052;-81
2022/05/21 05:07:51;;;;;;;1.00;1.00;;;;;;;15.62;60.90;102070.72;5099337;28;20063;-82
2022/05/21 05:10:17;;;;;;;0.20;0.20;;;;;;;15.57;61.33;102074.44;5093033;28;20048;-81
2022/05/21 05:12:43;;;;;;;0.00;0.00;;;;;;;15.71;60.89;102080.34;5103522;28;20052;-82
2022/05/21 05:15:10;;;;;;;0.57;0.57;;;;;;;15.71;60.51;102075.00;5095233;28;20041;-82
2022/05/21 05:17:36;;;;;;;0.05;0.05;;;;;;;15.77;61.07;102072.19;5092653;28;20107;-81
2022/05/21 05:20:02;;;;;;;0.47;0.47;;;;;;;15.73;60.79;102075.84;5088769;28;20028;-82
2022/05/21 05:22:29;;;;;;;0.10;0.10;;;;;;;15.78;60.66;102071.28;5102810;28;20036;-82
2022/05/21 05:24:55;;;;;;;0.10;0.10;;;;;;;15.84;60.50;102072.97;5089986;28;20028;-81
2022/05/21 05:27:21;;;;;;;0.60;0.60;;;;;;;15.80;60.61;102081.94;5095170;28;20051;-81
2022/05/21 05:29:47;;;;;;;0.10;0.10;;;;;;;15.83;60.44;102081.91;5095840;28;20043;-81
2022/05/21 05:32:13;;;;;;;0.10;0.10;;;;;;;16.00;60.51;102078.84;5102580;28;20527;-80
2022/05/21 05:34:40;;;;;;;0.00;0.00;;;;;;;15.93;60.36;102090.59;5094977;28;20081;-81
2022/05/21 05:37:06;;;;;;;0.10;0.10;;;;;;;15.87;60.44;102086.25;5097109;28;20092;-81
2022/05/21 05:39:32;;;;;;;2.05;1.95;;;;;;;16.06;59.86;102089.38;5090387;28;20035;-81
2022/05/21 05:42:01;;;;;;;0.10;0.10;;;;;;;15.95;59.80;102083.41;5098218;28;20464;-81
2022/05/21 05:44:28;;;;;;;0.77;0.77;;;;;;;15.87;59.74;102088.06;5106843;28;20037;-81
2022/05/21 05:46:54;;;;;;;1.65;1.55;;;;;;;16.07;59.99;102090.28;5097895;28;20019;-81
2022/05/21 05:49:20;;;;;;;0.10;0.10;;;;;;;16.10;59.70;102093.75;5106333;28;20071;-81
2022/05/21 05:51:46;;;;;;;1.13;1.13;;;;;;;16.16;59.55;102090.94;5098306;28;20059;-81
2022/05/21 05:54:13;;;;;;;0.10;0.10;;;;;;;16.15;59.34;102099.88;5091391;28;20032;-81
2022/05/21 05:56:43;;;;;;;0.20;0.20;;;;;;;16.07;59.35;102095.63;5100460;28;20032;-81
2022/05/21 06:04:43;;;;;;;0.20;0.20;;;;;;;16.18;58.81;102090.91;5105269;28;20100;-81
2022/05/21 06:07:16;;;;;;;0.65;0.65;;;;;;;16.38;59.11;102094.91;5100567;28;20085;-82
2022/05/21 06:09:42;;;;;;;0.30;0.30;;;;;;;16.39;59.02;102092.19;5093801;28;20035;-81
2022/05/21 06:12:09;;;;;;;0.10;0.10;;;;;;;16.32;58.68;102090.56;5090286;28;20047;-81
2022/05/21 06:14:36;;;;;;;9.43;1.33;;;;;;;16.43;58.70;102084.97;5100753;28;20056;-81
2022/05/21 06:17:02;;;;;;;0.00;0.00;;;;;;;16.40;58.81;102099.31;5095807;28;20096;-82
2022/05/21 06:19:28;;;;;;;0.17;0.17;;;;;;;16.45;59.11;102101.88;5091411;28;20028;-82
2022/05/21 06:21:59;;;;;;;0.95;0.95;;;;;;;16.40;58.40;102111.78;5098910;28;20034;-82
2022/05/21 06:24:25;;;;;;;0.10;0.10;;;;;;;16.46;58.93;102119.66;5093706;28;20040;-81
2022/05/21 06:26:51;;;;;;;0.00;0.00;;;;;;;16.52;58.49;102118.63;5093790;28;20036;-82
2022/05/21 06:29:17;;;;;;;0.10;0.10;;;;;;;16.48;58.30;102113.34;5096044;28;20032;-82
2022/05/21 06:31:43;;;;;;;0.00;0.00;;;;;;;16.51;57.87;102117.78;5087641;28;20138;-82
2022/05/21 06:34:10;;;;;;;0.10;0.10;;;;;;;16.66;58.24;102121.88;5098270;28;20119;-82
2022/05/21 06:36:36;;;;;;;0.10;0.10;;;;;;;16.60;57.66;102132.72;5099912;28;20040;-84
2022/05/21 06:39:03;;;;;;;0.17;0.17;;;;;;;16.59;57.88;102137.16;5088968;28;20069;-81
2022/05/21 06:41:31;;;;;;;0.43;0.43;;;;;;;16.66;57.56;102132.56;5087213;28;20028;-81
2022/05/21 06:43:57;;;;;;;0.77;0.77;;;;;;;16.61;57.69;102142.47;5086923;28;20016;-81
2022/05/21 06:46:24;;;;;;;0.00;0.00;;;;;;;16.59;57.06;102141.66;5088684;28;20032;-82
2022/05/21 06:48:50;;;;;;;0.10;0.10;;;;;;;16.54;57.53;102143.56;5092663;28;20032;-81
2022/05/21 06:51:16;;;;;;;4.78;2.70;;;;;;;16.76;57.46;102150.16;5090661;28;20028;-81
2022/05/21 06:53:42;;;;;;;0.10;0.10;;;;;;;16.81;57.54;102148.22;5082433;28;20092;-81
2022/05/21 06:56:12;;;;;;;0.00;0.00;;;;;;;16.82;56.96;102138.38;5092028;28;20028;-80
2022/05/21 06:58:38;;;;;;;0.20;0.20;;;;;;;16.79;56.73;102150.03;5095127;28;20052;-81
2022/05/21 07:01:05;;;;;;;0.10;0.10;;;;;;;16.89;56.44;102164.09;5092118;28;20036;-81
2022/05/21 07:03:31;;;;;;;0.30;0.30;;;;;;;16.94;57.36;102158.66;5091639;28;20043;-81
2022/05/21 07:08:44;;;;;;;0.10;0.10;;;;;;;17.19;56.97;102163.38;5093182;28;20514;-81
2022/05/21 07:11:10;;;;;;;0.10;0.10;;;;;;;17.10;56.88;102168.03;5074569;28;20060;-81
2022/05/21 07:13:36;;;;;;;0.40;0.40;;;;;;;17.09;55.77;102168.94;5087732;28;20500;-80
2022/05/21 07:16:02;;;;;;;2.70;1.13;;;;;;;17.22;56.17;102157.91;5082835;28;20032;-80
2022/05/21 07:18:28;;;;;;;8.25;1.13;;;;;;;17.33;55.74;102160.31;5089484;28;20024;-80
2022/05/21 07:20:56;;;;;;;1.45;1.20;;;;;;;17.26;55.57;102171.19;5088314;28;20044;-81
2022/05/21 07:23:23;;;;;;;0.10;0.10;;;;;;;17.37;56.33;102167.34;5091958;28;20032;-82
2022/05/21 07:25:50;;;;;;;0.10;0.10;;;;;;;17.50;56.20;102184.84;5095474;28;20028;-82
2022/05/21 07:28:16;;;;;;;0.00;0.00;;;;;;;17.54;55.33;102180.28;5096618;28;20092;-82
2022/05/21 07:30:44;;;;;;;0.20;0.20;;;;;;;17.51;55.32;102188.38;5084837;28;20020;-81
2022/05/21 07:33:13;;;;;;;0.30;0.30;;;;;;;17.45;54.87;102197.50;5086203;28;20539;-82
2022/05/21 07:35:39;;;;;;;0.10;0.10;;;;;;;17.50;54.82;102183.97;5090678;28;20028;-82
2022/05/21 07:38:08;;;;;;;0.10;0.10;;;;;;;17.62;54.91;102195.22;5088500;28;20062;-81
2022/05/21 07:40:36;;;;;;;0.10;0.10;;;;;;;17.70;55.23;102192.31;5095435;28;20111;-82
2022/05/21 07:43:12;;;;;;;1.75;1.65;;;;;;;17.86;54.90;102197.25;5066326;28;20555;-81
2022/05/21 07:45:39;;;;;;;0.10;0.10;;;;;;;17.82;54.73;102192.88;5085986;28;20029;-83
2022/05/21 07:48:07;;;;;;;0.00;0.00;;;;;;;17.90;54.48;102199.78;5097943;28;20107;-83
2022/05/21 07:50:33;;;;;;;0.30;0.30;;;;;;;17.76;54.47;102202.84;5112987;28;20608;-83
2022/05/21 07:52:59;;;;;;;0.10;0.10;;;;;;;17.76;54.45;102207.34;5108365;28;20032;-83
2022/05/21 07:55:25;;;;;;;0.10;0.10;;;;;;;17.97;54.47;102207.69;5093623;28;20030;-82
2022/05/21 07:57:51;;;;;;;0.10;0.10;;;;;;;18.00;54.47;102211.16;5094648;28;20092;-82
2022/05/21 08:00:17;;;;;;;1.15;1.13;;;;;;;18.03;54.35;102215.53;5095793;28;20036;-82
2022/05/21 08:02:45;;;;;;;0.00;0.00;;;;;;;18.16;54.04;102208.03;5094677;28;20028;-82
2022/05/21 08:05:12;;;;;;;0.10;0.10;;;;;;;18.08;54.41;102218.97;5094963;28;20028;-83
2022/05/21 08:07:39;;;;;;;0.10;0.10;;;;;;;18.22;54.44;102221.25;5091423;28;20051;-84
2022/05/21 08:10:07;;;;;;;0.10;0.10;;;;;;;18.32;54.12;102209.31;5092481;28;20028;-82
2022/05/21 08:12:33;;;;;;;0.10;0.10;;;;;;;18.47;53.97;102215.09;5094663;28;20036;-82
2022/05/21 08:14:59;;;;;;;0.30;0.30;;;;;;;18.59;52.98;102220.09;5088492;28;20403;-82
2022/05/21 08:17:25;;;;;;;0.47;0.47;;;;;;;18.57;52.77;102208.53;5092270;28;20035;-81
2022/05/21 08:19:51;;;;;;;0.10;0.10;;;;;;;18.65;52.67;102219.91;5091291;28;20542;-81
2022/05/21 08:27:50;;;;;;;0.10;0.10;;;;;;;18.70;52.76;102228.69;5093610;28;20036;-82
2022/05/21 08:30:16;;;;;;;0.10;0.10;;;;;;;18.87;52.95;102222.78;5093828;28;20545;-82
2022/05/21 08:32:42;;;;;;;0.10;0.10;;;;;;;18.86;52.69;102217.47;5096521;28;20034;-82
2022/05/21 08:35:08;;;;;;;0.15;0.15;;;;;;;18.95;52.44;102210.94;5082673;28;20050;-82
2022/05/21 08:37:35;;;;;;;0.90;0.90;;;;;;;18.94;52.35;102222.59;5095540;28;20028;-83
2022/05/21 08:40:02;;;;;;;0.30;0.30;;;;;;;18.97;52.20;102223.38;5085789;28;20036;-83
2022/05/21 08:42:35;;;;;;;0.10;0.10;;;;;;;19.01;51.21;102219.66;5082741;28;20491;-83
2022/05/21 08:45:17;;;;;;;0.40;0.38;;;;;;;19.07;51.64;102222.13;5080866;28;20059;-85
2022/05/21 08:47:45;;;;;;;;;;;;;;;19.01;50.71;102235.75;5088202;28;20125;-85
2022/05/21 08:50:15;;;;;;;0.10;0.10;;;;;;;19.10;51.46;102225.66;5099866;28;19919;-86
2022/05/21 08:53:04;;;;;;;0.10;0.10;;;;;;;19.35;51.38;102228.38;5091058;28;20032;-86
2022/05/21 08:55:34;;;;;;;0.40;0.32;;;;;;;19.32;50.59;102220.44;5092025;28;20020;-85
2022/05/21 08:58:09;;;;;;;0.00;0.00;;;;;;;19.31;50.80;102207.91;5091385;28;20064;-85
2022/05/21 09:00:40;;;;;;;2.53;2.28;;;;;;;19.53;50.53;102213.41;5092216;28;20122;-85
2022/05/21 09:03:11;;;;;;;0.00;0.00;;;;;;;19.43;49.40;102223.59;5093676;28;20396;-86
2022/05/21 09:05:41;;;;;;;0.57;0.57;;;;;;;19.52;49.39;102222.41;5073758;28;20037;-86
2022/05/21 09:11:12;;;;;;;0.10;0.10;;;;;;;19.61;49.18;102219.38;5066938;28;20481;-75
2022/05/21 09:13:48;;;;;;;0.45;0.45;;;;;;;19.66;49.23;102214.69;5067720;28;20039;-75
2022/05/21 09:19:06;;;;;;;0.75;0.75;;;;;;;19.95;48.74;102211.91;5062589;28;20043;-76
2022/05/21 09:21:33;;;;;;;0.75;0.75;;;;;;;20.15;48.11;102201.28;5047061;28;20052;-75
2022/05/21 09:24:02;;;;;;;0.10;0.10;;;;;;;20.30;48.18;102204.28;5062557;28;20035;-76
2022/05/21 09:31:48;;;;;;;0.77;0.77;;;;;;;20.24;47.51;102209.91;5067308;27;1908550;-76
2022/05/21 09:34:27;;;;;;;0.10;0.10;;;;;;;20.47;47.25;102212.59;5113593;28;20477;-75
2022/05/21 09:36:55;;;;;;;0.10;0.10;;;;;;;20.39;45.84;102224.56;5097757;27;20028;-76
2022/05/21 09:39:38;;;;;;;0.10;0.10;;;;;;;20.41;45.85;102218.22;5099598;28;20024;-76
2022/05/21 09:48:14;;;;;;;0.10;0.10;;;;;;;20.16;47.25;102223.66;5098106;27;20419;-76
2022/05/21 09:53:37;;;;;;;6.32;1.60;;;;;;;20.77;47.35;102219.50;5085730;27;20423;-77
2022/05/21 09:56:08;;;;;;;0.10;0.10;;;;;;;20.80;46.36;102214.88;5064384;28;20061;-76
2022/05/21 09:58:39;;;;;;;0.20;0.20;;;;;;;20.98;45.33;102231.19;5062951;28;20040;-75
2022/05/21 10:01:11;;;;;;;0.10;0.10;;;;;;;21.01;45.33;102223.00;5057841;28;20112;-78
2022/05/21 10:03:43;;;;;;;0.10;0.10;;;;;;;21.12;45.26;102219.84;5063334;28;20486;-78
2022/05/21 10:06:31;;;;;;;1.35;0.52;;;;;;;20.95;45.03;102225.97;5065463;28;20036;-78
2022/05/21 10:15:03;;;;;;;0.00;0.00;;;;;;;20.85;45.25;102242.50;5102928;27;20758;-76
2022/05/21 10:17:34;;;;;;;0.03;0.03;;;;;;;20.78;45.69;102248.19;5102231;28;20030;-76
2022/05/21 10:20:23;;;;;;;0.10;0.10;;;;;;;20.78;45.85;102246.38;5107824;28;20115;-77
2022/05/21 10:23:00;;;;;;;0.10;0.10;;;;;;;20.65;46.25;102248.66;5107702;28;20429;-77
2022/05/21 10:25:37;;;;;;;0.10;0.10;;;;;;;20.84;46.40;102239.88;5107912;28;20485;-77
2022/05/21 10:31:27;;;;;;;0.80;0.80;;;;;;;20.86;45.44;102240.69;5102590;27;20960;-76
2022/05/21 10:37:11;;;;;;;0.10;0.10;;;;;;;21.07;45.48;102232.63;5068157;28;20390;-77
2022/05/21 10:40:11;;;;;;;0.10;0.10;;;;;;;21.16;45.54;102237.66;5064324;28;20139;-77
2022/05/21 10:43:03;;;;;;;0.80;0.80;;;;;;;21.42;46.04;102239.22;5057181;28;20043;-76
2022/05/21 10:45:59;;;;;;;0.10;0.10;;;;;;;21.47;45.03;102252.47;5065278;28;20067;-77
2022/05/21 10:49:04;;;;;;;0.10;0.10;;;;;;;21.44;44.66;102253.47;5067526;28;20493;-77
2022/05/21 10:51:35;;;;;;;0.10;0.10;;;;;;;21.37;44.50;102251.13;5067780;28;20029;-77
2022/05/21 10:54:41;;;;;;;0.38;0.38;;;;;;;21.37;44.48;102240.34;5068081;28;20430;-77
2022/05/21 10:57:38;;;;;;;0.32;0.32;;;;;;;21.23;45.22;102244.50;5061191;28;20048;-77
2022/05/21 11:00:37;;;;;;;0.10;0.10;;;;;;;21.23;45.21;102249.03;5060717;28;20040;-77
2022/05/21 11:08:38;;;;;;;0.10;0.10;;;;;;;20.84;45.73;102266.81;5088280;28;20328;-76
2022/05/21 11:11:22;;;;;;;0.20;0.20;;;;;;;20.79;45.46;102266.13;5087313;28;20488;-76
2022/05/21 11:16:41;;;;;;;0.03;0.03;;;;;;;21.03;44.96;102257.97;5108447;27;20375;-76
2022/05/21 11:19:17;;;;;;;0.10;0.10;;;;;;;21.26;44.48;102255.16;5107193;28;20035;-76
2022/05/21 11:21:49;;;;;;;0.10;0.10;;;;;;;21.27;44.24;102256.94;5108017;28;20028;-76
2022/05/21 11:27:16;;;;;;;0.45;0.45;;;;;;;21.57;43.43;102240.41;5108720;27;20384;-76
2022/05/21 11:29:49;;;;;;;0.40;0.40;;;;;;;21.74;43.05;102239.63;5103201;28;20040;-77
2022/05/21 11:38:20;;;;;;;0.00;0.00;;;;;;;22.29;40.91;102247.00;5107968;28;20032;-77
2022/05/21 11:41:38;;;;;;;0.50;0.50;;;;;;;22.26;40.33;102244.44;5106841;28;20047;-77
2022/05/21 11:46:48;;;;;;;0.20;0.20;;;;;;;22.24;40.79;102248.16;5106069;27;20401;-76
2022/05/21 11:49:41;;;;;;;0.10;0.10;;;;;;;22.40;40.54;102248.34;5098007;28;20085;-76
2022/05/21 12:11:04;;;;;;;0.20;0.20;;;;;;;22.23;41.87;102247.31;5067289;28;20413;-76
2022/05/21 12:19:03;;;;;;;0.03;0.03;;;;;;;22.49;41.81;102247.91;5068573;28;20753;-76
2022/05/21 12:26:47;;;;;;;0.38;0.25;;;;;;;22.83;40.65;102235.47;5071711;27;20407;-75
2022/05/21 12:31:57;;;;;;;0.10;0.10;;;;;;;22.61;38.45;102247.31;5108310;27;20407;-76
2022/05/21 12:42:57;;;;;;;0.10;0.10;;;;;;;23.46;39.59;102228.66;5087472;27;20444;-75
2022/05/21 12:45:36;;;;;;;0.85;0.85;;;;;;;23.44;38.29;102227.91;5088495;28;20123;-76
2022/05/21 12:48:25;;;;;;;0.10;0.10;;;;;;;23.64;37.78;102225.94;5068699;28;20028;-76
2022/05/21 12:53:44;;;;;;;0.45;0.45;;;;;;;23.41;37.72;102239.75;5068037;28;20395;-76
2022/05/21 12:59:15;;;;;;;0.35;0.35;;;;;;;23.57;37.71;102234.38;5067606;28;20410;-76
2022/05/21 13:02:10;;;;;;;0.20;0.20;;;;;;;23.73;36.45;102257.94;5067257;28;20044;-76
2022/05/21 13:04:38;;;;;;;0.00;0.00;;;;;;;23.57;35.94;102258.72;5067757;28;20037;-76
2022/05/21 13:09:54;;;;;;;0.10;0.10;;;;;;;23.33;36.84;102239.25;5108895;27;20388;-76
2022/05/21 13:12:21;;;;;;;0.57;0.57;;;;;;;23.36;37.84;102238.22;5106483;28;20035;-75
2022/05/21 13:14:49;;;;;;;0.10;0.10;;;;;;;23.37;37.31;102248.97;5107257;28;20028;-76
2022/05/21 13:17:39;;;;;;;0.30;0.30;;;;;;;23.45;37.24;102240.44;5108641;28;20102;-75
2022/05/21 13:25:51;;;;;;;0.17;0.17;;;;;;;23.35;36.84;102247.28;5107677;27;20422;-76
2022/05/21 13:28:20;;;;;;;0.10;0.10;;;;;;;23.05;37.54;102245.16;5108225;28;20479;-76
2022/05/21 13:30:49;;;;;;;0.00;0.00;;;;;;;23.04;37.81;102255.13;5102067;28;20046;-76
2022/05/21 13:36:13;;;;;;;0.10;0.10;;;;;;;22.79;37.75;102260.84;5128132;27;20386;-77
2022/05/21 13:38:40;;;;;;;;;;;;;;;23.01;37.33;102254.41;5127383;27;20055;-77
2022/05/21 13:41:11;;;;;;;0.10;0.10;;;;;;;22.81;37.61;102252.69;5128643;27;19908;-76
2022/05/21 13:43:42;;;;;;;0.10;0.10;;;;;;;22.91;37.40;102243.16;5128362;27;20028;-77
2022/05/21 13:46:10;;;;;;;1.65;1.02;;;;;;;22.76;37.92;102239.41;5129221;27;20527;-76
2022/05/21 13:48:44;;;;;;;0.03;0.03;;;;;;;22.86;37.86;102256.91;5129848;27;20032;-77
2022/05/21 13:51:14;;;;;;;0.10;0.10;;;;;;;22.87;37.69;102242.44;5128774;27;20027;-76
2022/05/21 13:53:41;;;;;;;1.20;0.65;;;;;;;22.83;37.77;102240.84;5129163;27;20024;-77
2022/05/21 13:56:30;;;;;;;0.10;0.10;;;;;;;22.82;37.98;102239.09;5128156;27;20050;-77